Main page
METAR-TAF:

METAR-TAF

Airports :

Federico Fellini International Airport

Rimini, Italy

latitude: 44-02N, longitude: 012-37E, elevation: 12 m

Current weather observation

The report was made 30 minutes ago, at 12:50 UTC
Wind 14 kt from the Northeast
Temperature 11°C
Humidity 54%
Pressure 1020 hPa
Visibility 10 km or more
Scattered clouds at a height of 6500 ft

METAR: LIPR 261250Z 04014KT 9999 SCT065 11/02 Q1020

Time: 14:20 (13:20 UTC)

Forecast

The report was made 2 hours and 20 minutes ago, at 11:00 UTC
Forecast valid from 26 at 12 UTC to 26 at 21 UTC
Wind 12 kt from the North/Northeast
Visibility 10 km or more
Few clouds at a height of 4000 ft
Broken clouds at a height of 5000 ft

TAF: LIPR 261100Z 2612/2621 03012KT 9999 FEW040 BKN050

Weather observations and forecasts of more than 4000 airports (METAR and TAF reports).

The available stations are represented by yellow and red dots on the map.

Hover mouse over dot to see the name of the station.

Then click to see weather observations and forecasts.

To change the map : click on the green buttons with a black cross to zoom in, on the green button with a dash to zoom out, or on the green arrows for adjacent maps.


METAR-TAF: